sensor_id;sensor_type;location;lat;lon;timestamp;P1;durP1;ratioP1;P2;durP2;ratioP2
77379;SDS011;66439;50.106;10.996;2023-05-10T00:00:26;1.10;;;1.00;;
77379;SDS011;66439;50.106;10.996;2023-05-10T00:02:44;1.20;;;1.10;;
77379;SDS011;66439;50.106;10.996;2023-05-10T00:04:49;1.20;;;1.20;;
77379;SDS011;66439;50.106;10.996;2023-05-10T00:06:57;1.40;;;1.30;;
77379;SDS011;66439;50.106;10.996;2023-05-10T00:09:10;1.50;;;1.40;;
77379;SDS011;66439;50.106;10.996;2023-05-10T00:11:13;1.70;;;1.60;;
77379;SDS011;66439;50.106;10.996;2023-05-10T00:13:18;1.80;;;1.70;;
77379;SDS011;66439;50.106;10.996;2023-05-10T00:15:27;1.70;;;1.60;;
77379;SDS011;66439;50.106;10.996;2023-05-10T00:17:46;1.60;;;1.50;;
77379;SDS011;66439;50.106;10.996;2023-05-10T00:19:50;1.70;;;1.60;;
77379;SDS011;66439;50.106;10.996;2023-05-10T00:22:00;1.40;;;1.30;;
77379;SDS011;66439;50.106;10.996;2023-05-10T00:24:05;1.00;;;1.00;;
77379;SDS011;66439;50.106;10.996;2023-05-10T00:26:10;0.90;;;0.90;;
77379;SDS011;66439;50.106;10.996;2023-05-10T00:28:13;1.20;;;1.10;;
77379;SDS011;66439;50.106;10.996;2023-05-10T00:30:18;1.10;;;1.10;;
77379;SDS011;66439;50.106;10.996;2023-05-10T00:32:46;1.80;;;1.70;;
77379;SDS011;66439;50.106;10.996;2023-05-10T00:34:51;1.60;;;1.50;;
77379;SDS011;66439;50.106;10.996;2023-05-10T00:36:54;1.70;;;1.60;;
77379;SDS011;66439;50.106;10.996;2023-05-10T00:38:57;1.70;;;1.60;;
77379;SDS011;66439;50.106;10.996;2023-05-10T00:41:05;1.10;;;1.10;;
77379;SDS011;66439;50.106;10.996;2023-05-10T00:43:10;0.90;;;0.90;;
77379;SDS011;66439;50.106;10.996;2023-05-10T00:45:17;1.00;;;1.00;;
77379;SDS011;66439;50.106;10.996;2023-05-10T00:47:42;1.30;;;1.20;;
77379;SDS011;66439;50.106;10.996;2023-05-10T00:49:55;1.30;;;1.20;;
77379;SDS011;66439;50.106;10.996;2023-05-10T00:52:03;1.70;;;1.60;;
77379;SDS011;66439;50.106;10.996;2023-05-10T00:54:08;0.90;;;0.90;;
77379;SDS011;66439;50.106;10.996;2023-05-10T00:56:22;1.80;;;1.70;;
77379;SDS011;66439;50.106;10.996;2023-05-10T00:58:28;1.60;;;1.50;;
77379;SDS011;66439;50.106;10.996;2023-05-10T01:00:32;1.30;;;1.20;;
77379;SDS011;66439;50.106;10.996;2023-05-10T01:02:37;1.60;;;1.50;;
77379;SDS011;66439;50.106;10.996;2023-05-10T01:04:41;1.30;;;1.20;;
77379;SDS011;66439;50.106;10.996;2023-05-10T01:06:53;1.00;;;1.00;;
77379;SDS011;66439;50.106;10.996;2023-05-10T01:08:57;0.90;;;0.90;;
77379;SDS011;66439;50.106;10.996;2023-05-10T01:11:02;0.80;;;0.80;;
77379;SDS011;66439;50.106;10.996;2023-05-10T01:13:07;0.90;;;0.90;;
77379;SDS011;66439;50.106;10.996;2023-05-10T01:15:16;0.90;;;0.90;;
77379;SDS011;66439;50.106;10.996;2023-05-10T01:17:28;0.90;;;0.90;;
77379;SDS011;66439;50.106;10.996;2023-05-10T01:19:42;1.30;;;1.20;;
77379;SDS011;66439;50.106;10.996;2023-05-10T01:21:49;1.30;;;1.20;;
77379;SDS011;66439;50.106;10.996;2023-05-10T01:31:30;1.60;;;1.50;;
77379;SDS011;66439;50.106;10.996;2023-05-10T01:34:19;1.70;;;1.60;;
77379;SDS011;66439;50.106;10.996;2023-05-10T01:36:31;1.30;;;1.20;;
77379;SDS011;66439;50.106;10.996;2023-05-10T01:41:14;1.80;;;1.70;;
77379;SDS011;66439;50.106;10.996;2023-05-10T01:43:30;1.10;;;1.00;;
77379;SDS011;66439;50.106;10.996;2023-05-10T01:48:10;1.50;;;1.40;;
77379;SDS011;66439;50.106;10.996;2023-05-10T01:50:18;1.80;;;1.70;;
77379;SDS011;66439;50.106;10.996;2023-05-10T01:52:27;0.90;;;0.90;;
77379;SDS011;66439;50.106;10.996;2023-05-10T01:54:35;1.00;;;1.00;;
77379;SDS011;66439;50.106;10.996;2023-05-10T01:56:44;1.10;;;1.10;;
77379;SDS011;66439;50.106;10.996;2023-05-10T01:58:53;1.00;;;1.00;;
77379;SDS011;66439;50.106;10.996;2023-05-10T02:01:03;0.90;;;0.90;;
77379;SDS011;66439;50.106;10.996;2023-05-10T02:03:13;1.80;;;1.70;;
77379;SDS011;66439;50.106;10.996;2023-05-10T02:05:28;1.50;;;1.40;;
77379;SDS011;66439;50.106;10.996;2023-05-10T02:07:37;1.00;;;1.00;;
77379;SDS011;66439;50.106;10.996;2023-05-10T02:09:43;1.60;;;1.50;;
77379;SDS011;66439;50.106;10.996;2023-05-10T02:11:51;0.90;;;0.90;;
77379;SDS011;66439;50.106;10.996;2023-05-10T02:14:05;0.80;;;0.80;;
77379;SDS011;66439;50.106;10.996;2023-05-10T02:16:12;0.90;;;0.90;;
77379;SDS011;66439;50.106;10.996;2023-05-10T02:20:26;1.10;;;1.10;;
77379;SDS011;66439;50.106;10.996;2023-05-10T02:22:57;1.20;;;1.10;;
77379;SDS011;66439;50.106;10.996;2023-05-10T02:25:03;1.60;;;1.50;;
77379;SDS011;66439;50.106;10.996;2023-05-10T02:27:09;1.00;;;1.00;;
77379;SDS011;66439;50.106;10.996;2023-05-10T02:29:14;0.90;;;0.90;;
77379;SDS011;66439;50.106;10.996;2023-05-10T02:31:23;1.00;;;1.00;;
77379;SDS011;66439;50.106;10.996;2023-05-10T02:35:38;1.20;;;1.10;;
77379;SDS011;66439;50.106;10.996;2023-05-10T02:37:45;0.80;;;0.80;;
77379;SDS011;66439;50.106;10.996;2023-05-10T02:39:57;0.80;;;0.80;;
77379;SDS011;66439;50.106;10.996;2023-05-10T02:42:08;1.60;;;1.50;;
77379;SDS011;66439;50.106;10.996;2023-05-10T02:44:13;2.30;;;2.10;;
77379;SDS011;66439;50.106;10.996;2023-05-10T02:46:17;1.80;;;1.70;;
77379;SDS011;66439;50.106;10.996;2023-05-10T02:48:26;1.10;;;1.10;;
77379;SDS011;66439;50.106;10.996;2023-05-10T02:50:30;1.00;;;1.00;;
77379;SDS011;66439;50.106;10.996;2023-05-10T02:52:44;1.10;;;1.10;;
77379;SDS011;66439;50.106;10.996;2023-05-10T02:55:18;1.40;;;1.30;;
77379;SDS011;66439;50.106;10.996;2023-05-10T02:57:28;1.50;;;1.40;;
77379;SDS011;66439;50.106;10.996;2023-05-10T02:59:36;1.20;;;1.10;;
77379;SDS011;66439;50.106;10.996;2023-05-10T03:01:41;1.30;;;1.20;;
77379;SDS011;66439;50.106;10.996;2023-05-10T03:03:53;1.30;;;1.20;;
77379;SDS011;66439;50.106;10.996;2023-05-10T03:06:19;0.90;;;0.90;;
77379;SDS011;66439;50.106;10.996;2023-05-10T03:08:29;1.70;;;1.60;;
77379;SDS011;66439;50.106;10.996;2023-05-10T03:10:33;1.00;;;1.00;;
77379;SDS011;66439;50.106;10.996;2023-05-10T03:20:10;0.70;;;0.70;;
77379;SDS011;66439;50.106;10.996;2023-05-10T03:22:20;0.80;;;0.80;;
77379;SDS011;66439;50.106;10.996;2023-05-10T03:24:32;0.70;;;0.70;;
77379;SDS011;66439;50.106;10.996;2023-05-10T03:26:37;0.70;;;0.70;;
77379;SDS011;66439;50.106;10.996;2023-05-10T03:28:45;1.00;;;1.00;;
77379;SDS011;66439;50.106;10.996;2023-05-10T03:30:55;1.00;;;1.00;;
77379;SDS011;66439;50.106;10.996;2023-05-10T03:33:04;1.40;;;1.30;;
77379;SDS011;66439;50.106;10.996;2023-05-10T03:35:12;1.10;;;1.00;;
77379;SDS011;66439;50.106;10.996;2023-05-10T03:37:20;1.00;;;1.00;;
77379;SDS011;66439;50.106;10.996;2023-05-10T03:39:26;1.50;;;1.40;;
77379;SDS011;66439;50.106;10.996;2023-05-10T03:41:31;1.40;;;1.30;;
77379;SDS011;66439;50.106;10.996;2023-05-10T03:43:34;0.90;;;0.90;;
77379;SDS011;66439;50.106;10.996;2023-05-10T03:45:42;1.30;;;1.20;;
77379;SDS011;66439;50.106;10.996;2023-05-10T03:47:47;1.40;;;1.30;;
77379;SDS011;66439;50.106;10.996;2023-05-10T03:49:50;1.10;;;1.00;;
77379;SDS011;66439;50.106;10.996;2023-05-10T03:52:06;1.60;;;1.50;;
77379;SDS011;66439;50.106;10.996;2023-05-10T03:54:09;0.90;;;0.90;;
77379;SDS011;66439;50.106;10.996;2023-05-10T03:56:14;1.80;;;1.70;;
77379;SDS011;66439;50.106;10.996;2023-05-10T03:58:17;1.70;;;1.60;;
77379;SDS011;66439;50.106;10.996;2023-05-10T04:00:21;1.10;;;1.10;;
77379;SDS011;66439;50.106;10.996;2023-05-10T04:02:26;1.30;;;1.20;;
77379;SDS011;66439;50.106;10.996;2023-05-10T04:04:30;1.40;;;1.30;;
77379;SDS011;66439;50.106;10.996;2023-05-10T04:06:34;1.10;;;1.10;;
77379;SDS011;66439;50.106;10.996;2023-05-10T04:08:41;0.90;;;0.90;;
77379;SDS011;66439;50.106;10.996;2023-05-10T04:10:47;1.20;;;1.20;;
77379;SDS011;66439;50.106;10.996;2023-05-10T04:12:50;0.70;;;0.70;;
77379;SDS011;66439;50.106;10.996;2023-05-10T04:14:53;0.80;;;0.80;;
77379;SDS011;66439;50.106;10.996;2023-05-10T04:16:57;1.00;;;1.00;;
77379;SDS011;66439;50.106;10.996;2023-05-10T04:19:00;0.80;;;0.80;;
77379;SDS011;66439;50.106;10.996;2023-05-10T04:21:02;0.90;;;0.90;;
77379;SDS011;66439;50.106;10.996;2023-05-10T04:23:08;0.90;;;0.90;;
77379;SDS011;66439;50.106;10.996;2023-05-10T04:25:11;0.90;;;0.90;;
77379;SDS011;66439;50.106;10.996;2023-05-10T04:27:15;0.60;;;0.60;;
77379;SDS011;66439;50.106;10.996;2023-05-10T04:29:33;1.20;;;1.10;;
77379;SDS011;66439;50.106;10.996;2023-05-10T04:31:36;1.20;;;1.10;;
77379;SDS011;66439;50.106;10.996;2023-05-10T04:33:39;1.60;;;1.50;;
77379;SDS011;66439;50.106;10.996;2023-05-10T04:35:43;1.50;;;1.40;;
77379;SDS011;66439;50.106;10.996;2023-05-10T04:37:48;1.30;;;1.20;;
77379;SDS011;66439;50.106;10.996;2023-05-10T04:39:53;0.80;;;0.80;;
77379;SDS011;66439;50.106;10.996;2023-05-10T04:41:57;0.80;;;0.80;;
77379;SDS011;66439;50.106;10.996;2023-05-10T04:44:07;1.70;;;1.60;;
77379;SDS011;66439;50.106;10.996;2023-05-10T04:46:10;1.60;;;1.50;;
77379;SDS011;66439;50.106;10.996;2023-05-10T04:48:12;2.10;;;2.00;;
77379;SDS011;66439;50.106;10.996;2023-05-10T04:50:15;1.30;;;1.20;;
77379;SDS011;66439;50.106;10.996;2023-05-10T04:52:19;1.30;;;1.20;;
77379;SDS011;66439;50.106;10.996;2023-05-10T04:54:22;0.90;;;0.90;;
77379;SDS011;66439;50.106;10.996;2023-05-10T04:56:26;0.90;;;0.90;;
77379;SDS011;66439;50.106;10.996;2023-05-10T04:58:29;1.40;;;1.30;;
77379;SDS011;66439;50.106;10.996;2023-05-10T05:00:34;1.20;;;1.10;;
77379;SDS011;66439;50.106;10.996;2023-05-10T05:02:37;1.10;;;1.00;;
77379;SDS011;66439;50.106;10.996;2023-05-10T05:04:42;1.70;;;1.60;;
77379;SDS011;66439;50.106;10.996;2023-05-10T05:06:45;1.10;;;1.10;;
77379;SDS011;66439;50.106;10.996;2023-05-10T05:08:48;1.20;;;1.10;;
77379;SDS011;66439;50.106;10.996;2023-05-10T05:10:52;1.00;;;1.00;;
77379;SDS011;66439;50.106;10.996;2023-05-10T05:12:56;0.90;;;0.90;;
77379;SDS011;66439;50.106;10.996;2023-05-10T05:14:59;0.80;;;0.80;;
77379;SDS011;66439;50.106;10.996;2023-05-10T05:17:02;1.70;;;1.60;;
77379;SDS011;66439;50.106;10.996;2023-05-10T05:19:06;0.80;;;0.80;;
77379;SDS011;66439;50.106;10.996;2023-05-10T05:21:18;1.40;;;1.30;;
77379;SDS011;66439;50.106;10.996;2023-05-10T05:23:22;0.70;;;0.70;;
77379;SDS011;66439;50.106;10.996;2023-05-10T05:25:27;1.10;;;1.10;;
77379;SDS011;66439;50.106;10.996;2023-05-10T05:27:30;1.10;;;1.00;;
77379;SDS011;66439;50.106;10.996;2023-05-10T05:29:34;1.00;;;1.00;;
77379;SDS011;66439;50.106;10.996;2023-05-10T05:31:38;0.80;;;0.80;;
77379;SDS011;66439;50.106;10.996;2023-05-10T05:33:41;0.90;;;0.90;;
77379;SDS011;66439;50.106;10.996;2023-05-10T05:35:44;1.30;;;1.20;;
77379;SDS011;66439;50.106;10.996;2023-05-10T05:37:49;1.20;;;1.20;;
77379;SDS011;66439;50.106;10.996;2023-05-10T05:39:52;1.20;;;1.10;;
77379;SDS011;66439;50.106;10.996;2023-05-10T05:41:58;0.60;;;0.60;;
77379;SDS011;66439;50.106;10.996;2023-05-10T05:44:01;0.70;;;0.70;;
77379;SDS011;66439;50.106;10.996;2023-05-10T05:46:05;0.80;;;0.80;;
77379;SDS011;66439;50.106;10.996;2023-05-10T05:48:07;0.80;;;0.80;;
77379;SDS011;66439;50.106;10.996;2023-05-10T05:50:10;0.60;;;0.60;;
77379;SDS011;66439;50.106;10.996;2023-05-10T05:52:13;0.70;;;0.70;;
77379;SDS011;66439;50.106;10.996;2023-05-10T05:54:17;1.00;;;1.00;;
77379;SDS011;66439;50.106;10.996;2023-05-10T05:56:43;1.20;;;1.10;;
77379;SDS011;66439;50.106;10.996;2023-05-10T05:58:46;1.20;;;1.10;;
77379;SDS011;66439;50.106;10.996;2023-05-10T06:00:50;1.20;;;1.20;;
77379;SDS011;66439;50.106;10.996;2023-05-10T06:02:56;0.60;;;0.60;;
77379;SDS011;66439;50.106;10.996;2023-05-10T06:05:00;0.50;;;0.50;;
77379;SDS011;66439;50.106;10.996;2023-05-10T06:07:04;0.70;;;0.70;;
77379;SDS011;66439;50.106;10.996;2023-05-10T06:09:08;0.80;;;0.80;;
77379;SDS011;66439;50.106;10.996;2023-05-10T06:11:11;0.90;;;0.90;;
77379;SDS011;66439;50.106;10.996;2023-05-10T06:13:15;1.10;;;1.10;;
77379;SDS011;66439;50.106;10.996;2023-05-10T06:15:18;0.80;;;0.80;;
77379;SDS011;66439;50.106;10.996;2023-05-10T06:17:21;1.10;;;1.10;;
77379;SDS011;66439;50.106;10.996;2023-05-10T06:19:24;0.80;;;0.80;;
77379;SDS011;66439;50.106;10.996;2023-05-10T06:21:29;0.70;;;0.70;;
77379;SDS011;66439;50.106;10.996;2023-05-10T06:23:34;0.90;;;0.90;;
77379;SDS011;66439;50.106;10.996;2023-05-10T06:25:38;0.80;;;0.80;;
77379;SDS011;66439;50.106;10.996;2023-05-10T06:27:41;0.70;;;0.70;;
77379;SDS011;66439;50.106;10.996;2023-05-10T06:29:47;0.80;;;0.80;;
77379;SDS011;66439;50.106;10.996;2023-05-10T06:31:58;0.90;;;0.90;;
77379;SDS011;66439;50.106;10.996;2023-05-10T06:34:01;1.60;;;1.50;;
77379;SDS011;66439;50.106;10.996;2023-05-10T06:36:04;0.90;;;0.90;;
77379;SDS011;66439;50.106;10.996;2023-05-10T06:38:07;1.80;;;1.70;;
77379;SDS011;66439;50.106;10.996;2023-05-10T06:40:11;1.00;;;1.00;;
77379;SDS011;66439;50.106;10.996;2023-05-10T06:42:14;0.80;;;0.80;;
77379;SDS011;66439;50.106;10.996;2023-05-10T06:44:21;0.70;;;0.70;;
77379;SDS011;66439;50.106;10.996;2023-05-10T06:46:23;0.70;;;0.70;;
77379;SDS011;66439;50.106;10.996;2023-05-10T06:50:33;0.70;;;0.70;;
77379;SDS011;66439;50.106;10.996;2023-05-10T06:52:38;0.80;;;0.80;;
77379;SDS011;66439;50.106;10.996;2023-05-10T06:54:44;0.70;;;0.70;;
77379;SDS011;66439;50.106;10.996;2023-05-10T06:56:52;1.00;;;1.00;;
77379;SDS011;66439;50.106;10.996;2023-05-10T06:58:56;0.90;;;0.90;;
77379;SDS011;66439;50.106;10.996;2023-05-10T07:01:04;1.10;;;1.10;;
77379;SDS011;66439;50.106;10.996;2023-05-10T07:03:09;1.50;;;1.40;;
77379;SDS011;66439;50.106;10.996;2023-05-10T07:05:13;1.50;;;1.40;;
77379;SDS011;66439;50.106;10.996;2023-05-10T07:07:16;1.00;;;1.00;;
77379;SDS011;66439;50.106;10.996;2023-05-10T07:09:20;0.90;;;0.90;;
77379;SDS011;66439;50.106;10.996;2023-05-10T07:11:24;0.90;;;0.90;;
77379;SDS011;66439;50.106;10.996;2023-05-10T07:13:29;0.60;;;0.60;;
77379;SDS011;66439;50.106;10.996;2023-05-10T07:15:35;0.80;;;0.80;;
77379;SDS011;66439;50.106;10.996;2023-05-10T07:17:38;0.70;;;0.70;;
77379;SDS011;66439;50.106;10.996;2023-05-10T07:19:42;1.20;;;1.20;;
77379;SDS011;66439;50.106;10.996;2023-05-10T07:21:48;1.00;;;1.00;;
77379;SDS011;66439;50.106;10.996;2023-05-10T07:23:51;1.30;;;1.20;;
77379;SDS011;66439;50.106;10.996;2023-05-10T07:25:55;1.00;;;1.00;;
77379;SDS011;66439;50.106;10.996;2023-05-10T07:28:02;1.00;;;1.00;;
77379;SDS011;66439;50.106;10.996;2023-05-10T07:30:05;1.30;;;1.20;;
77379;SDS011;66439;50.106;10.996;2023-05-10T07:32:11;0.90;;;0.90;;
77379;SDS011;66439;50.106;10.996;2023-05-10T07:34:14;0.70;;;0.70;;
77379;SDS011;66439;50.106;10.996;2023-05-10T07:36:17;1.50;;;1.40;;
77379;SDS011;66439;50.106;10.996;2023-05-10T07:38:22;1.40;;;1.30;;
77379;SDS011;66439;50.106;10.996;2023-05-10T07:40:25;0.90;;;0.90;;
77379;SDS011;66439;50.106;10.996;2023-05-10T07:42:29;0.90;;;0.90;;
77379;SDS011;66439;50.106;10.996;2023-05-10T07:44:32;0.80;;;0.80;;
77379;SDS011;66439;50.106;10.996;2023-05-10T07:46:35;0.80;;;0.80;;
77379;SDS011;66439;50.106;10.996;2023-05-10T07:48:39;0.80;;;0.80;;
77379;SDS011;66439;50.106;10.996;2023-05-10T07:50:42;1.00;;;1.00;;
77379;SDS011;66439;50.106;10.996;2023-05-10T07:52:46;0.70;;;0.70;;
77379;SDS011;66439;50.106;10.996;2023-05-10T07:54:50;0.90;;;0.90;;
77379;SDS011;66439;50.106;10.996;2023-05-10T07:56:53;0.70;;;0.70;;
77379;SDS011;66439;50.106;10.996;2023-05-10T07:59:00;0.60;;;0.60;;
77379;SDS011;66439;50.106;10.996;2023-05-10T08:01:07;0.60;;;0.60;;
77379;SDS011;66439;50.106;10.996;2023-05-10T08:03:12;0.80;;;0.80;;
77379;SDS011;66439;50.106;10.996;2023-05-10T08:05:15;0.90;;;0.90;;
77379;SDS011;66439;50.106;10.996;2023-05-10T08:07:21;1.50;;;1.40;;
77379;SDS011;66439;50.106;10.996;2023-05-10T08:09:24;1.40;;;1.30;;
77379;SDS011;66439;50.106;10.996;2023-05-10T08:11:27;1.30;;;1.20;;
77379;SDS011;66439;50.106;10.996;2023-05-10T08:13:31;0.90;;;0.90;;
77379;SDS011;66439;50.106;10.996;2023-05-10T08:15:48;0.80;;;0.80;;
77379;SDS011;66439;50.106;10.996;2023-05-10T08:17:53;0.90;;;0.90;;
77379;SDS011;66439;50.106;10.996;2023-05-10T08:19:57;0.50;;;0.50;;
77379;SDS011;66439;50.106;10.996;2023-05-10T08:22:00;0.60;;;0.60;;
77379;SDS011;66439;50.106;10.996;2023-05-10T08:24:06;1.10;;;1.10;;
77379;SDS011;66439;50.106;10.996;2023-05-10T08:26:09;0.60;;;0.60;;
77379;SDS011;66439;50.106;10.996;2023-05-10T08:28:15;0.60;;;0.60;;
77379;SDS011;66439;50.106;10.996;2023-05-10T08:30:19;0.70;;;0.70;;
77379;SDS011;66439;50.106;10.996;2023-05-10T08:32:23;1.20;;;1.10;;
77379;SDS011;66439;50.106;10.996;2023-05-10T08:34:27;0.60;;;0.60;;
77379;SDS011;66439;50.106;10.996;2023-05-10T08:36:32;0.60;;;0.60;;
77379;SDS011;66439;50.106;10.996;2023-05-10T08:38:34;0.70;;;0.70;;
77379;SDS011;66439;50.106;10.996;2023-05-10T08:42:50;0.60;;;0.60;;
77379;SDS011;66439;50.106;10.996;2023-05-10T08:45:01;0.50;;;0.50;;
77379;SDS011;66439;50.106;10.996;2023-05-10T08:47:29;1.30;;;1.20;;
77379;SDS011;66439;50.106;10.996;2023-05-10T08:49:32;0.90;;;0.90;;
77379;SDS011;66439;50.106;10.996;2023-05-10T08:51:40;0.50;;;0.50;;
77379;SDS011;66439;50.106;10.996;2023-05-10T08:53:49;0.70;;;0.70;;
77379;SDS011;66439;50.106;10.996;2023-05-10T08:55:55;0.70;;;0.70;;
77379;SDS011;66439;50.106;10.996;2023-05-10T08:58:03;0.60;;;0.60;;
77379;SDS011;66439;50.106;10.996;2023-05-10T09:00:21;0.90;;;0.90;;
77379;SDS011;66439;50.106;10.996;2023-05-10T09:02:26;0.80;;;0.80;;
77379;SDS011;66439;50.106;10.996;2023-05-10T09:04:30;0.80;;;0.80;;
77379;SDS011;66439;50.106;10.996;2023-05-10T09:06:36;0.60;;;0.60;;
77379;SDS011;66439;50.106;10.996;2023-05-10T09:08:42;0.70;;;0.70;;
77379;SDS011;66439;50.106;10.996;2023-05-10T09:10:45;0.70;;;0.70;;
77379;SDS011;66439;50.106;10.996;2023-05-10T09:12:56;0.70;;;0.70;;
77379;SDS011;66439;50.106;10.996;2023-05-10T09:15:06;0.50;;;0.50;;
77379;SDS011;66439;50.106;10.996;2023-05-10T09:17:12;0.90;;;0.90;;
77379;SDS011;66439;50.106;10.996;2023-05-10T09:19:19;0.60;;;0.60;;
77379;SDS011;66439;50.106;10.996;2023-05-10T09:21:23;1.20;;;1.10;;
77379;SDS011;66439;50.106;10.996;2023-05-10T09:23:42;0.60;;;0.60;;
77379;SDS011;66439;50.106;10.996;2023-05-10T09:26:01;0.80;;;0.80;;
77379;SDS011;66439;50.106;10.996;2023-05-10T09:28:08;0.60;;;0.60;;
77379;SDS011;66439;50.106;10.996;2023-05-10T09:30:16;0.90;;;0.90;;
77379;SDS011;66439;50.106;10.996;2023-05-10T09:32:37;0.70;;;0.70;;
77379;SDS011;66439;50.106;10.996;2023-05-10T09:34:45;0.70;;;0.70;;
77379;SDS011;66439;50.106;10.996;2023-05-10T09:36:55;0.90;;;0.90;;
77379;SDS011;66439;50.106;10.996;2023-05-10T09:39:00;0.60;;;0.60;;
77379;SDS011;66439;50.106;10.996;2023-05-10T09:41:14;0.50;;;0.50;;
77379;SDS011;66439;50.106;10.996;2023-05-10T09:43:20;0.60;;;0.60;;
77379;SDS011;66439;50.106;10.996;2023-05-10T09:45:31;0.90;;;0.90;;
77379;SDS011;66439;50.106;10.996;2023-05-10T09:47:41;0.50;;;0.50;;
77379;SDS011;66439;50.106;10.996;2023-05-10T09:49:49;0.50;;;0.50;;
77379;SDS011;66439;50.106;10.996;2023-05-10T09:52:03;0.70;;;0.70;;
77379;SDS011;66439;50.106;10.996;2023-05-10T09:54:13;0.60;;;0.60;;
77379;SDS011;66439;50.106;10.996;2023-05-10T09:56:33;0.50;;;0.50;;
77379;SDS011;66439;50.106;10.996;2023-05-10T09:58:38;0.70;;;0.70;;
77379;SDS011;66439;50.106;10.996;2023-05-10T10:00:44;0.70;;;0.70;;
77379;SDS011;66439;50.106;10.996;2023-05-10T10:02:57;0.50;;;0.50;;
77379;SDS011;66439;50.106;10.996;2023-05-10T10:05:03;0.70;;;0.70;;
77379;SDS011;66439;50.106;10.996;2023-05-10T10:07:09;0.60;;;0.60;;
77379;SDS011;66439;50.106;10.996;2023-05-10T10:09:13;0.70;;;0.70;;
77379;SDS011;66439;50.106;10.996;2023-05-10T10:11:16;0.50;;;0.50;;
77379;SDS011;66439;50.106;10.996;2023-05-10T10:13:20;0.50;;;0.50;;
77379;SDS011;66439;50.106;10.996;2023-05-10T10:15:23;0.70;;;0.70;;
77379;SDS011;66439;50.106;10.996;2023-05-10T10:17:27;0.80;;;0.80;;
77379;SDS011;66439;50.106;10.996;2023-05-10T10:19:33;0.60;;;0.60;;
77379;SDS011;66439;50.106;10.996;2023-05-10T10:21:39;0.50;;;0.50;;
77379;SDS011;66439;50.106;10.996;2023-05-10T10:23:42;0.60;;;0.60;;
77379;SDS011;66439;50.106;10.996;2023-05-10T10:25:46;0.70;;;0.70;;
77379;SDS011;66439;50.106;10.996;2023-05-10T10:30:06;0.60;;;0.60;;
77379;SDS011;66439;50.106;10.996;2023-05-10T10:32:27;0.70;;;0.70;;
77379;SDS011;66439;50.106;10.996;2023-05-10T10:34:41;0.60;;;0.60;;
77379;SDS011;66439;50.106;10.996;2023-05-10T10:36:50;0.60;;;0.60;;
77379;SDS011;66439;50.106;10.996;2023-05-10T10:39:10;0.60;;;0.60;;
77379;SDS011;66439;50.106;10.996;2023-05-10T10:43:37;0.70;;;0.70;;
77379;SDS011;66439;50.106;10.996;2023-05-10T10:45:47;0.50;;;0.50;;
77379;SDS011;66439;50.106;10.996;2023-05-10T10:48:25;0.70;;;0.70;;
77379;SDS011;66439;50.106;10.996;2023-05-10T10:50:28;0.50;;;0.50;;
77379;SDS011;66439;50.106;10.996;2023-05-10T10:52:36;0.40;;;0.40;;
77379;SDS011;66439;50.106;10.996;2023-05-10T10:54:39;0.60;;;0.60;;
77379;SDS011;66439;50.106;10.996;2023-05-10T10:56:50;0.70;;;0.70;;
77379;SDS011;66439;50.106;10.996;2023-05-10T10:59:26;0.80;;;0.80;;
77379;SDS011;66439;50.106;10.996;2023-05-10T11:01:33;0.60;;;0.60;;
77379;SDS011;66439;50.106;10.996;2023-05-10T11:06:17;1.00;;;1.00;;
77379;SDS011;66439;50.106;10.996;2023-05-10T11:08:39;0.50;;;0.50;;
77379;SDS011;66439;50.106;10.996;2023-05-10T11:13:06;0.90;;;0.90;;
77379;SDS011;66439;50.106;10.996;2023-05-10T11:15:10;1.10;;;1.10;;
77379;SDS011;66439;50.106;10.996;2023-05-10T11:17:32;0.50;;;0.50;;
77379;SDS011;66439;50.106;10.996;2023-05-10T11:19:57;1.20;;;1.10;;
77379;SDS011;66439;50.106;10.996;2023-05-10T11:24:21;0.50;;;0.50;;
77379;SDS011;66439;50.106;10.996;2023-05-10T11:26:30;0.60;;;0.60;;
77379;SDS011;66439;50.106;10.996;2023-05-10T11:28:43;1.00;;;1.00;;
77379;SDS011;66439;50.106;10.996;2023-05-10T11:30:50;0.80;;;0.80;;
77379;SDS011;66439;50.106;10.996;2023-05-10T11:32:55;0.50;;;0.50;;
77379;SDS011;66439;50.106;10.996;2023-05-10T11:34:58;0.50;;;0.50;;
77379;SDS011;66439;50.106;10.996;2023-05-10T11:37:03;0.50;;;0.50;;
77379;SDS011;66439;50.106;10.996;2023-05-10T11:39:11;0.70;;;0.70;;
77379;SDS011;66439;50.106;10.996;2023-05-10T11:41:18;0.40;;;0.40;;
77379;SDS011;66439;50.106;10.996;2023-05-10T11:43:29;0.50;;;0.50;;
77379;SDS011;66439;50.106;10.996;2023-05-10T11:45:33;0.60;;;0.60;;
77379;SDS011;66439;50.106;10.996;2023-05-10T11:47:38;0.50;;;0.50;;
77379;SDS011;66439;50.106;10.996;2023-05-10T11:49:48;0.40;;;0.40;;
77379;SDS011;66439;50.106;10.996;2023-05-10T11:52:08;0.50;;;0.50;;
77379;SDS011;66439;50.106;10.996;2023-05-10T11:54:21;0.90;;;0.90;;
77379;SDS011;66439;50.106;10.996;2023-05-10T11:56:25;0.60;;;0.60;;
77379;SDS011;66439;50.106;10.996;2023-05-10T11:58:32;0.50;;;0.50;;
77379;SDS011;66439;50.106;10.996;2023-05-10T12:00:38;0.60;;;0.60;;
77379;SDS011;66439;50.106;10.996;2023-05-10T12:02:49;0.60;;;0.60;;
77379;SDS011;66439;50.106;10.996;2023-05-10T12:04:58;0.70;;;0.70;;
77379;SDS011;66439;50.106;10.996;2023-05-10T12:07:04;0.60;;;0.60;;
77379;SDS011;66439;50.106;10.996;2023-05-10T12:09:21;0.60;;;0.60;;
77379;SDS011;66439;50.106;10.996;2023-05-10T12:11:41;0.30;;;0.30;;
77379;SDS011;66439;50.106;10.996;2023-05-10T12:13:45;0.60;;;0.60;;
77379;SDS011;66439;50.106;10.996;2023-05-10T12:15:57;0.60;;;0.60;;
77379;SDS011;66439;50.106;10.996;2023-05-10T12:18:05;0.60;;;0.60;;
77379;SDS011;66439;50.106;10.996;2023-05-10T12:20:19;0.60;;;0.60;;
77379;SDS011;66439;50.106;10.996;2023-05-10T12:22:32;0.80;;;0.80;;
77379;SDS011;66439;50.106;10.996;2023-05-10T12:24:39;0.40;;;0.40;;
77379;SDS011;66439;50.106;10.996;2023-05-10T12:26:47;0.60;;;0.60;;
77379;SDS011;66439;50.106;10.996;2023-05-10T12:28:50;0.70;;;0.70;;
77379;SDS011;66439;50.106;10.996;2023-05-10T12:30:55;0.70;;;0.70;;
77379;SDS011;66439;50.106;10.996;2023-05-10T12:35:20;0.50;;;0.50;;
77379;SDS011;66439;50.106;10.996;2023-05-10T12:37:28;0.50;;;0.50;;
77379;SDS011;66439;50.106;10.996;2023-05-10T12:39:53;1.00;;;1.00;;
77379;SDS011;66439;50.106;10.996;2023-05-10T12:41:58;1.20;;;1.10;;
77379;SDS011;66439;50.106;10.996;2023-05-10T12:44:06;0.50;;;0.50;;
77379;SDS011;66439;50.106;10.996;2023-05-10T12:46:13;0.50;;;0.50;;
77379;SDS011;66439;50.106;10.996;2023-05-10T12:48:20;0.30;;;0.30;;
77379;SDS011;66439;50.106;10.996;2023-05-10T12:50:22;0.60;;;0.60;;
77379;SDS011;66439;50.106;10.996;2023-05-10T12:53:00;0.60;;;0.60;;
77379;SDS011;66439;50.106;10.996;2023-05-10T12:55:04;0.50;;;0.50;;
77379;SDS011;66439;50.106;10.996;2023-05-10T12:57:07;0.40;;;0.40;;
77379;SDS011;66439;50.106;10.996;2023-05-10T12:59:10;0.50;;;0.50;;
77379;SDS011;66439;50.106;10.996;2023-05-10T13:01:16;0.40;;;0.40;;
77379;SDS011;66439;50.106;10.996;2023-05-10T13:03:19;0.40;;;0.40;;
77379;SDS011;66439;50.106;10.996;2023-05-10T13:05:27;0.30;;;0.30;;
77379;SDS011;66439;50.106;10.996;2023-05-10T13:07:37;0.50;;;0.50;;
77379;SDS011;66439;50.106;10.996;2023-05-10T13:09:40;0.60;;;0.60;;
77379;SDS011;66439;50.106;10.996;2023-05-10T13:11:45;0.80;;;0.80;;
77379;SDS011;66439;50.106;10.996;2023-05-10T13:13:49;0.80;;;0.80;;
77379;SDS011;66439;50.106;10.996;2023-05-10T13:15:58;0.80;;;0.80;;
77379;SDS011;66439;50.106;10.996;2023-05-10T13:18:05;0.50;;;0.50;;